Time;durP1;ratioP1;P1;durP2;ratioP2;P2;SDS_P1;SDS_P2;PMS_P1;PMS_P2;Temp;Humidity;BMP_temperature;BMP_pressure;BME280_temperature;BME280_humidity;BME280_pressure;Samples;Min_cycle;Max_cycle;Signal;HPM_P1;HPM_P2
2022/04/10 00:01:49;;;;;;;4.90;1.80;;;;;;;7.40;50.08;98046.00;4464482;32;20153;-86
2022/04/10 00:04:15;;;;;;;7.22;2.05;;;;;;;7.51;49.53;98052.41;4464247;32;20089;-87
2022/04/10 00:06:40;;;;;;;6.00;2.00;;;;;;;7.36;49.77;98040.97;4459155;32;20068;-87
2022/04/10 00:09:06;;;;;;;6.35;1.85;;;;;;;7.23;50.50;98031.16;4441280;32;20093;-86
2022/04/10 00:11:31;;;;;;;6.00;1.83;;;;;;;7.28;50.60;98039.63;4457102;32;20089;-84
2022/04/10 00:13:58;;;;;;;5.62;2.00;;;;;;;7.22;50.90;98041.72;4462706;32;20080;-90
2022/04/10 00:16:24;;;;;;;8.77;2.20;;;;;;;7.08;51.39;98045.06;4454883;32;20088;-87
2022/04/10 00:18:50;;;;;;;6.18;2.15;;;;;;;7.16;51.60;98042.03;4455433;32;20205;-87
2022/04/10 00:21:17;;;;;;;6.05;2.12;;;;;;;7.16;51.84;98044.66;4457036;32;20558;-88
2022/04/10 00:23:43;;;;;;;16.45;2.50;;;;;;;7.13;51.80;98035.19;4471548;32;20114;-89
2022/04/10 00:26:11;;;;;;;6.65;2.10;;;;;;;6.82;52.82;98044.66;4457549;32;20149;-87
2022/04/10 00:28:36;;;;;;;7.18;2.40;;;;;;;7.01;52.68;98038.44;4447134;32;20453;-81
2022/04/10 00:31:01;;;;;;;9.00;2.58;;;;;;;6.96;52.72;98036.06;4456948;32;20119;-91
2022/04/10 00:33:27;;;;;;;6.22;2.00;;;;;;;7.00;52.87;98036.75;4458591;32;20118;-86
2022/04/10 00:35:52;;;;;;;7.50;2.37;;;;;;;7.03;52.78;98037.47;4461022;32;20122;-86
2022/04/10 00:38:20;;;;;;;6.12;2.12;;;;;;;6.71;53.61;98033.87;4461889;32;20104;-87
2022/04/10 00:40:45;;;;;;;5.55;1.83;;;;;;;6.84;53.04;98032.31;4461536;32;20097;-86
2022/04/10 00:43:11;;;;;;;6.05;2.03;;;;;;;6.62;53.69;98039.56;4461954;32;20108;-91
2022/04/10 00:45:36;;;;;;;6.53;1.92;;;;;;;6.50;53.93;98027.94;4448271;32;20188;-86
2022/04/10 00:48:02;;;;;;;6.30;1.90;;;;;;;6.34;54.69;98027.03;4461832;32;20123;-85
2022/04/10 00:50:27;;;;;;;8.50;2.30;;;;;;;6.36;54.59;98039.09;4447857;32;20113;-85
2022/04/10 00:52:53;;;;;;;7.03;2.42;;;;;;;6.60;54.06;98038.81;4462885;32;20111;-85
2022/04/10 00:55:19;;;;;;;6.53;2.20;;;;;;;6.42;54.25;98032.72;4462081;32;20100;-85
2022/04/10 00:57:48;;;;;;;6.65;2.20;;;;;;;6.46;54.38;98029.03;4462346;32;20169;-85
2022/04/10 01:00:15;;;;;;;6.93;2.20;;;;;;;6.59;54.08;98040.59;4447891;32;20092;-86
2022/04/10 01:02:41;;;;;;;5.87;2.20;;;;;;;6.74;53.61;98045.94;4461164;32;20080;-83
2022/04/10 01:05:07;;;;;;;9.18;2.67;;;;;;;6.50;54.25;98041.87;4446929;32;20203;-84
2022/04/10 01:07:33;;;;;;;7.60;1.90;;;;;;;6.66;53.79;98073.37;4462737;32;20112;-84
2022/04/10 01:09:58;;;;;;;5.70;2.10;;;;;;;6.26;54.73;98071.88;4461249;32;20142;-84
2022/04/10 01:12:24;;;;;;;6.55;2.50;;;;;;;6.59;54.34;98071.16;4460958;32;20088;-84
2022/04/10 01:14:50;;;;;;;6.10;2.17;;;;;;;6.34;55.07;98084.59;4461717;32;20101;-84
2022/04/10 01:17:16;;;;;;;9.73;2.67;;;;;;;6.40;54.88;98081.66;4448080;32;20127;-83
2022/04/10 01:19:42;;;;;;;7.85;2.42;;;;;;;6.20;55.52;98080.87;4436518;32;20155;-84
2022/04/10 01:22:09;;;;;;;7.87;2.60;;;;;;;6.30;55.32;98078.66;4446805;32;20100;-83
2022/04/10 01:24:38;;;;;;;7.80;2.60;;;;;;;6.47;55.32;98099.59;4461971;32;20084;-83
2022/04/10 01:27:03;;;;;;;8.13;2.33;;;;;;;6.45;55.26;98091.00;4447301;32;20112;-84
2022/04/10 01:29:29;;;;;;;6.78;2.65;;;;;;;6.45;55.42;98090.13;4449403;32;20146;-84
2022/04/10 01:31:55;;;;;;;9.18;2.80;;;;;;;6.35;55.78;98091.50;4462103;32;20108;-83
2022/04/10 01:34:21;;;;;;;9.93;2.83;;;;;;;6.11;56.57;98086.53;4456147;32;20096;-81
2022/04/10 01:36:46;;;;;;;7.35;2.62;;;;;;;6.06;56.83;98086.72;4464230;32;20126;-82
2022/04/10 01:39:15;;;;;;;7.78;2.50;;;;;;;6.04;56.75;98099.03;4441468;32;20141;-82
2022/04/10 01:41:41;;;;;;;8.02;2.62;;;;;;;6.25;56.22;98099.78;4449169;32;20443;-83
2022/04/10 01:44:08;;;;;;;7.35;2.40;;;;;;;6.28;56.08;98091.81;4465257;32;20128;-85
2022/04/10 01:46:34;;;;;;;6.70;2.20;;;;;;;6.19;56.36;98088.78;4459405;32;20164;-85
2022/04/10 01:49:00;;;;;;;8.90;2.65;;;;;;;6.09;56.46;98101.44;4447828;32;20109;-86
2022/04/10 01:51:25;;;;;;;7.10;2.17;;;;;;;6.14;56.35;98102.06;4455214;32;20110;-85
2022/04/10 01:53:53;;;;;;;8.57;2.50;;;;;;;6.21;56.15;98107.88;4455289;32;20344;-84
2022/04/10 01:56:18;;;;;;;6.95;2.45;;;;;;;6.04;56.73;98095.59;4441282;32;20105;-84
2022/04/10 01:58:45;;;;;;;7.53;2.42;;;;;;;5.63;58.06;98106.16;4455117;32;20085;-84
2022/04/10 02:01:13;;;;;;;8.83;3.03;;;;;;;5.76;57.69;98111.69;4455368;32;20846;-84
2022/04/10 02:03:39;;;;;;;9.20;2.62;;;;;;;5.90;57.31;98106.66;4454209;32;20085;-84
2022/04/10 02:06:06;;;;;;;9.07;3.00;;;;;;;5.84;57.77;98109.56;4462485;32;20371;-84
2022/04/10 02:08:32;;;;;;;7.78;2.90;;;;;;;5.82;57.72;98114.00;4456903;32;20140;-84
2022/04/10 02:10:57;;;;;;;9.07;3.12;;;;;;;5.86;57.60;98110.34;4456606;32;20452;-84
2022/04/10 02:13:23;;;;;;;8.05;3.05;;;;;;;5.74;58.04;98109.16;4472407;32;20089;-84
2022/04/10 02:15:49;;;;;;;7.95;2.62;;;;;;;5.90;57.19;98112.72;4472789;32;20136;-84
2022/04/10 02:18:14;;;;;;;7.62;2.67;;;;;;;5.95;57.05;98115.19;4458313;32;20438;-85
2022/04/10 02:20:40;;;;;;;7.62;2.45;;;;;;;5.95;56.99;98117.78;4472334;32;20390;-82
2022/04/10 02:23:06;;;;;;;8.18;2.80;;;;;;;6.02;56.77;98118.34;4472344;32;20436;-85
2022/04/10 02:25:32;;;;;;;9.18;3.22;;;;;;;5.99;56.81;98116.72;4466690;32;20109;-84
2022/04/10 02:27:57;;;;;;;7.22;2.55;;;;;;;5.71;57.49;98132.78;4465498;32;20084;-84
2022/04/10 02:30:23;;;;;;;7.43;2.53;;;;;;;5.80;57.12;98129.75;4472403;32;20523;-84
2022/04/10 02:32:48;;;;;;;8.10;2.87;;;;;;;5.98;56.63;98130.69;4472431;32;20084;-85
2022/04/10 02:35:14;;;;;;;10.43;3.42;;;;;;;6.09;56.40;98131.06;4472306;32;20399;-85
2022/04/10 02:37:45;;;;;;;8.70;3.03;;;;;;;6.01;56.17;98132.34;4472372;32;20115;-84
2022/04/10 02:40:14;;;;;;;6.93;2.55;;;;;;;5.90;56.46;98144.09;4458598;32;20092;-84
2022/04/10 02:42:40;;;;;;;9.32;3.47;;;;;;;5.71;57.11;98141.47;4472344;32;20107;-84
2022/04/10 02:45:06;;;;;;;8.23;3.10;;;;;;;5.94;56.47;98130.91;4467293;32;20481;-85
2022/04/10 02:47:31;;;;;;;8.68;2.83;;;;;;;5.98;56.54;98140.31;4447296;32;20153;-85
2022/04/10 02:49:57;;;;;;;8.27;2.80;;;;;;;5.94;56.42;98139.56;4456582;32;20093;-84
2022/04/10 02:52:22;;;;;;;8.90;2.75;;;;;;;5.82;56.74;98148.00;4456664;32;20068;-84
2022/04/10 02:54:48;;;;;;;7.70;2.75;;;;;;;6.07;56.11;98138.12;4456638;32;20147;-85
2022/04/10 02:57:14;;;;;;;8.40;3.10;;;;;;;5.81;56.92;98148.91;4456708;32;20112;-85
2022/04/10 02:59:39;;;;;;;9.73;3.12;;;;;;;5.88;56.76;98151.16;4456495;32;20131;-84
2022/04/10 03:02:04;;;;;;;9.05;2.53;;;;;;;5.68;57.21;98149.47;4456662;32;20462;-85
2022/04/10 03:04:30;;;;;;;10.35;2.72;;;;;;;5.54;57.63;98157.06;4460242;32;20119;-85
2022/04/10 03:06:55;;;;;;;7.20;2.75;;;;;;;5.77;57.30;98156.03;4471760;32;20101;-85
2022/04/10 03:09:21;;;;;;;8.40;2.85;;;;;;;5.54;57.92;98156.22;4457984;32;20134;-84
2022/04/10 03:11:46;;;;;;;9.50;3.20;;;;;;;5.80;56.90;98168.97;4458044;32;20088;-84
2022/04/10 03:14:12;;;;;;;9.65;2.65;;;;;;;5.79;56.75;98166.41;4472123;32;20131;-83
2022/04/10 03:16:37;;;;;;;9.13;2.70;;;;;;;5.92;56.21;98167.56;4472099;32;20100;-84
2022/04/10 03:19:03;;;;;;;9.38;2.55;;;;;;;6.07;55.85;98160.81;4471986;32;20161;-84
2022/04/10 03:21:29;;;;;;;10.45;2.72;;;;;;;6.05;55.77;98170.50;4472050;32;20132;-83
2022/04/10 03:23:54;;;;;;;8.30;2.72;;;;;;;5.96;56.08;98170.91;4442589;32;20109;-84
2022/04/10 03:26:20;;;;;;;7.18;2.30;;;;;;;6.05;56.00;98179.19;4456414;32;20093;-84
2022/04/10 03:28:45;;;;;;;10.32;3.17;;;;;;;6.00;56.41;98177.69;4456304;32;20084;-84
2022/04/10 03:31:11;;;;;;;9.02;3.03;;;;;;;5.98;56.46;98192.59;4456361;32;20135;-84
2022/04/10 03:33:36;;;;;;;7.95;2.92;;;;;;;5.64;57.68;98194.06;4456354;32;20398;-83
2022/04/10 03:36:02;;;;;;;9.00;3.08;;;;;;;5.88;57.07;98200.00;4456319;32;20387;-84
2022/04/10 03:38:27;;;;;;;9.88;3.55;;;;;;;5.84;57.32;98203.66;4456184;32;20095;-84
2022/04/10 03:40:53;;;;;;;9.60;3.28;;;;;;;5.79;57.66;98216.06;4456332;32;20081;-85
2022/04/10 03:43:19;;;;;;;9.70;3.40;;;;;;;5.58;58.13;98213.50;4468292;32;20097;-86
2022/04/10 03:45:44;;;;;;;9.38;3.12;;;;;;;5.62;58.36;98212.47;4471941;32;20169;-85
2022/04/10 03:48:10;;;;;;;10.40;3.50;;;;;;;5.51;58.84;98214.69;4471972;32;20085;-85
2022/04/10 03:50:36;;;;;;;9.25;3.22;;;;;;;5.26;59.65;98207.03;4471639;32;20085;-85
2022/04/10 03:53:03;;;;;;;9.68;3.33;;;;;;;5.62;58.79;98222.91;4457798;32;20144;-85
2022/04/10 03:55:29;;;;;;;9.50;3.75;;;;;;;5.19;60.34;98221.25;4472047;32;20156;-86
2022/04/10 03:57:54;;;;;;;8.10;3.05;;;;;;;5.18;60.65;98214.38;4457744;32;20088;-85
2022/04/10 04:00:20;;;;;;;10.20;3.55;;;;;;;5.24;60.54;98222.78;4471715;32;20089;-86
2022/04/10 04:02:45;;;;;;;8.20;3.03;;;;;;;5.07;61.07;98223.47;4458958;32;20096;-86
2022/04/10 04:05:11;;;;;;;9.60;3.30;;;;;;;5.13;60.90;98222.38;4456162;32;20111;-86
2022/04/10 04:07:36;;;;;;;9.60;3.90;;;;;;;5.19;60.90;98223.88;4455090;32;20115;-85
2022/04/10 04:10:03;;;;;;;9.43;3.30;;;;;;;4.92;61.89;98234.53;4456238;32;20105;-86
2022/04/10 04:12:28;;;;;;;9.25;3.58;;;;;;;4.96;61.78;98232.66;4456379;32;20150;-86
2022/04/10 04:14:54;;;;;;;10.40;3.62;;;;;;;4.98;61.86;98230.84;4455171;32;20097;-85
2022/04/10 04:17:19;;;;;;;11.00;3.90;;;;;;;4.85;62.25;98236.56;4441858;32;20084;-85
2022/04/10 04:19:49;;;;;;;11.05;4.20;;;;;;;4.69;62.81;98238.06;4454773;32;20104;-85
2022/04/10 04:22:15;;;;;;;10.00;3.80;;;;;;;4.85;62.39;98241.78;4466053;32;20570;-85
2022/04/10 04:24:40;;;;;;;9.20;3.25;;;;;;;4.81;62.48;98232.37;4457455;32;20105;-84
2022/04/10 04:27:06;;;;;;;11.23;4.05;;;;;;;4.89;62.17;98243.34;4471697;32;20114;-85
2022/04/10 04:29:31;;;;;;;10.15;3.45;;;;;;;5.01;62.01;98249.00;4471608;32;20136;-85
2022/04/10 04:31:57;;;;;;;9.82;3.70;;;;;;;4.96;61.97;98243.94;4471464;32;20170;-85
2022/04/10 04:34:23;;;;;;;9.85;3.47;;;;;;;4.86;62.30;98251.28;4471538;32;20154;-85
2022/04/10 04:36:48;;;;;;;9.35;3.50;;;;;;;4.84;62.41;98260.94;4471539;32;20088;-84
2022/04/10 04:39:14;;;;;;;10.82;4.12;;;;;;;4.88;62.31;98252.06;4465538;32;20394;-84
2022/04/10 04:41:39;;;;;;;9.50;3.65;;;;;;;4.85;62.53;98254.81;4456029;32;20101;-85
2022/04/10 04:44:05;;;;;;;10.15;3.72;;;;;;;5.01;61.91;98264.66;4456013;32;20089;-86
2022/04/10 04:46:30;;;;;;;12.25;3.72;;;;;;;5.18;61.56;98256.16;4454894;32;20129;-86
2022/04/10 04:48:56;;;;;;;11.45;4.30;;;;;;;5.34;61.03;98257.19;4455804;32;20081;-85
2022/04/10 04:51:21;;;;;;;10.40;3.83;;;;;;;5.41;60.82;98258.63;4454841;32;20188;-86
2022/04/10 04:53:47;;;;;;;10.40;3.95;;;;;;;5.58;60.45;98271.00;4455883;32;20350;-85
2022/04/10 04:56:13;;;;;;;10.98;3.80;;;;;;;5.57;60.30;98269.28;4455901;32;20360;-86
2022/04/10 04:58:38;;;;;;;12.30;3.85;;;;;;;5.50;60.70;98271.31;4458598;32;20096;-85
2022/04/10 05:01:03;;;;;;;10.32;4.12;;;;;;;5.69;59.96;98266.13;4457026;32;20125;-86
2022/04/10 05:03:29;;;;;;;9.63;3.65;;;;;;;5.98;58.98;98263.19;4471442;32;20105;-86
2022/04/10 05:05:54;;;;;;;11.05;4.10;;;;;;;6.08;58.50;98267.97;4460251;32;20436;-85
2022/04/10 05:08:20;;;;;;;10.52;4.12;;;;;;;5.78;59.18;98272.75;4454606;32;20119;-84
2022/04/10 05:10:46;;;;;;;9.05;3.53;;;;;;;5.97;58.77;98275.44;4455760;32;20453;-85
2022/04/10 05:13:12;;;;;;;9.95;3.80;;;;;;;6.35;57.97;98275.47;4454645;32;20093;-85
2022/04/10 05:15:37;;;;;;;11.35;4.10;;;;;;;6.06;58.59;98277.63;4454374;32;20139;-84
2022/04/10 05:18:03;;;;;;;10.57;4.25;;;;;;;5.93;58.86;98291.28;4456436;32;20088;-86
2022/04/10 05:20:28;;;;;;;11.32;3.90;;;;;;;6.07;58.67;98288.94;4471079;32;20133;-86
2022/04/10 05:22:54;;;;;;;10.80;4.10;;;;;;;6.26;58.08;98296.84;4456943;32;20116;-86
2022/04/10 05:25:19;;;;;;;9.20;3.50;;;;;;;6.18;58.23;98298.91;4471016;32;20423;-85
2022/04/10 05:27:45;;;;;;;10.18;3.97;;;;;;;6.09;58.51;98294.97;4456926;32;20080;-84
2022/04/10 05:30:10;;;;;;;9.88;4.10;;;;;;;6.08;58.40;98293.25;4471191;32;20439;-85
2022/04/10 05:32:41;;;;;;;9.50;4.10;;;;;;;6.07;58.18;98299.41;4471086;32;20097;-85
2022/04/10 05:35:08;;;;;;;12.95;4.30;;;;;;;6.42;57.20;98323.13;4471139;32;20084;-84
2022/04/10 05:37:33;;;;;;;8.73;3.53;;;;;;;6.20;57.76;98318.88;4460878;32;20123;-84
2022/04/10 05:39:59;;;;;;;9.02;3.55;;;;;;;6.15;57.94;98322.59;4466688;32;20136;-86
2022/04/10 05:42:24;;;;;;;10.00;3.50;;;;;;;6.54;57.18;98316.50;4471084;32;20113;-86
2022/04/10 05:44:49;;;;;;;10.48;4.12;;;;;;;6.47;56.63;98303.69;4471040;32;20104;-85
2022/04/10 05:47:15;;;;;;;12.23;3.47;;;;;;;6.48;57.04;98318.47;4465364;32;20089;-85
2022/04/10 05:49:40;;;;;;;9.90;3.47;;;;;;;6.73;55.95;98319.97;4443589;32;20127;-87
2022/04/10 05:52:07;;;;;;;11.07;4.05;;;;;;;6.77;55.66;98324.13;4470789;32;20149;-85
2022/04/10 05:54:33;;;;;;;11.75;3.95;;;;;;;7.09;55.14;98324.41;4466992;32;20107;-85
2022/04/10 05:56:58;;;;;;;10.45;3.72;;;;;;;7.01;55.35;98329.13;4455195;32;20077;-86
2022/04/10 05:59:24;;;;;;;10.07;3.78;;;;;;;7.26;54.03;98323.56;4454912;32;20436;-85
2022/04/10 06:01:49;;;;;;;10.55;3.90;;;;;;;7.57;53.51;98327.31;4441343;32;20140;-86
2022/04/10 06:04:15;;;;;;;8.65;3.65;;;;;;;7.50;52.94;98328.56;4455400;32;20081;-85
2022/04/10 06:06:40;;;;;;;10.98;4.12;;;;;;;7.40;53.43;98343.88;4462260;32;20458;-85
2022/04/10 06:09:05;;;;;;;11.27;4.10;;;;;;;7.35;53.65;98343.25;4470815;32;20104;-87
2022/04/10 06:11:31;;;;;;;9.43;3.87;;;;;;;7.48;53.42;98333.84;4470937;32;20101;-84
2022/04/10 06:13:56;;;;;;;10.32;3.87;;;;;;;7.58;53.19;98334.25;4456542;32;20341;-85
2022/04/10 06:16:22;;;;;;;9.23;3.50;;;;;;;7.75;53.04;98341.28;4464870;32;20124;-86
2022/04/10 06:18:47;;;;;;;9.45;3.40;;;;;;;7.94;52.23;98336.81;4454912;32;20456;-86
2022/04/10 06:21:12;;;;;;;9.55;3.42;;;;;;;8.08;51.86;98336.94;4455191;32;20090;-86
2022/04/10 06:23:38;;;;;;;10.75;3.83;;;;;;;7.77;52.63;98340.28;4454780;32;20107;-85
2022/04/10 06:26:03;;;;;;;9.68;3.90;;;;;;;7.83;52.57;98339.97;4454801;32;20435;-86
2022/04/10 06:28:30;;;;;;;9.35;3.22;;;;;;;8.51;51.47;98340.88;4454710;32;20116;-86
2022/04/10 06:30:55;;;;;;;10.35;4.10;;;;;;;8.03;51.67;98338.94;4454745;32;20157;-88
2022/04/10 06:33:21;;;;;;;9.55;3.60;;;;;;;8.13;51.34;98347.19;4454784;32;20142;-88
2022/04/10 06:35:47;;;;;;;9.88;4.10;;;;;;;8.38;51.17;98346.78;4461798;32;20406;-87
2022/04/10 06:38:12;;;;;;;10.98;4.70;;;;;;;8.25;51.35;98349.19;4453520;32;20117;-87
2022/04/10 06:40:38;;;;;;;10.10;4.10;;;;;;;8.57;50.99;98357.16;4454674;32;20077;-86
2022/04/10 06:43:06;;;;;;;9.73;3.80;;;;;;;8.77;49.87;98358.72;4454610;32;20093;-86
2022/04/10 06:45:31;;;;;;;10.30;3.80;;;;;;;8.92;49.21;98356.19;4463401;32;20180;-87
2022/04/10 06:47:57;;;;;;;9.93;3.85;;;;;;;9.20;48.88;98371.28;4469968;32;20092;-86
2022/04/10 06:50:22;;;;;;;9.68;3.92;;;;;;;9.12;48.50;98363.00;4469824;32;20387;-88
2022/04/10 06:52:47;;;;;;;9.65;4.12;;;;;;;8.86;49.53;98378.37;4458328;32;20183;-87
2022/04/10 06:55:13;;;;;;;10.68;4.30;;;;;;;8.56;49.72;98386.13;4457953;32;20199;-87
2022/04/10 06:57:38;;;;;;;9.85;3.58;;;;;;;8.72;49.46;98376.50;4469665;32;20111;-86
2022/04/10 07:00:04;;;;;;;9.27;3.62;;;;;;;8.70;49.20;98375.72;4471397;32;20125;-85
2022/04/10 07:02:32;;;;;;;8.75;3.50;;;;;;;8.70;49.57;98386.25;4472252;32;20466;-86
2022/04/10 07:04:57;;;;;;;8.20;3.50;;;;;;;8.68;49.70;98382.00;4472221;32;20088;-86
2022/04/10 07:07:22;;;;;;;9.60;3.83;;;;;;;9.23;49.17;98389.50;4472128;32;20127;-83
2022/04/10 07:09:48;;;;;;;10.65;3.40;;;;;;;9.16;48.84;98377.66;4472001;32;20341;-84
2022/04/10 07:12:13;;;;;;;9.52;3.62;;;;;;;9.45;48.41;98383.91;4457828;32;20364;-85
2022/04/10 07:14:39;;;;;;;9.07;3.50;;;;;;;9.47;47.31;98387.28;4467413;32;20093;-85
2022/04/10 07:17:05;;;;;;;9.95;3.10;;;;;;;9.55;47.53;98377.19;4456604;32;20413;-84
2022/04/10 07:19:30;;;;;;;10.80;3.53;;;;;;;9.95;47.44;98376.66;4456473;32;20459;-83
2022/04/10 07:24:40;;;;;;;10.18;3.55;;;;;;;10.35;45.70;98379.56;4456498;32;20142;-88
2022/04/10 07:27:05;;;;;;;7.95;2.95;;;;;;;10.76;44.93;98392.87;4455174;32;20112;-88
2022/04/10 07:29:30;;;;;;;8.90;3.28;;;;;;;10.74;44.03;98400.03;4456451;32;20158;-88
2022/04/10 07:31:56;;;;;;;7.95;3.03;;;;;;;10.23;44.68;98403.03;4455183;32;20116;-85
2022/04/10 07:34:21;;;;;;;8.85;3.12;;;;;;;10.30;44.73;98408.81;4459311;32;20497;-86
2022/04/10 07:36:46;;;;;;;7.97;3.22;;;;;;;10.17;44.77;98413.09;4457562;32;20136;-84
2022/04/10 07:39:12;;;;;;;8.65;3.15;;;;;;;10.67;44.80;98398.69;4471901;32;20092;-86
2022/04/10 07:41:37;;;;;;;7.93;3.05;;;;;;;10.69;44.42;98406.53;4471903;32;20081;-86
2022/04/10 07:44:03;;;;;;;8.05;3.15;;;;;;;10.55;44.17;98405.56;4457422;32;20096;-86
2022/04/10 07:49:13;;;;;;;8.82;3.40;;;;;;;11.06;42.90;98406.88;4456161;32;20154;-87
2022/04/10 07:51:38;;;;;;;8.82;3.45;;;;;;;11.16;42.77;98414.13;4456263;32;20353;-87
2022/04/10 07:54:03;;;;;;;9.52;3.10;;;;;;;11.18;42.27;98406.09;4456926;32;20091;-85
2022/04/10 07:56:29;;;;;;;7.70;2.87;;;;;;;10.93;43.04;98409.41;4456338;32;20109;-84
2022/04/10 07:58:54;;;;;;;7.87;3.03;;;;;;;11.20;42.70;98407.72;4453847;32;20093;-85
2022/04/10 08:01:20;;;;;;;7.95;2.92;;;;;;;11.18;41.55;98419.28;4457741;32;20094;-83
2022/04/10 08:03:51;;;;;;;8.55;3.00;;;;;;;11.25;41.55;98414.47;4451064;32;20146;-84
2022/04/10 08:06:17;;;;;;;7.70;2.90;;;;;;;11.18;41.40;98433.31;4462310;32;20120;-85
2022/04/10 08:08:42;;;;;;;7.20;2.80;;;;;;;10.84;42.59;98439.84;4441426;32;20113;-89
2022/04/10 08:11:08;;;;;;;7.75;2.80;;;;;;;10.81;42.31;98442.66;4455405;32;20404;-88
2022/04/10 08:13:33;;;;;;;9.40;3.45;;;;;;;10.79;42.28;98441.88;4454528;32;20180;-90
2022/04/10 08:15:59;;;;;;;8.93;3.03;;;;;;;10.64;42.17;98446.28;4454750;32;20088;-88
2022/04/10 08:18:24;;;;;;;7.87;2.83;;;;;;;10.57;42.92;98445.00;4428190;32;20134;-87
2022/04/10 08:20:51;;;;;;;7.87;2.97;;;;;;;10.50;43.34;98443.66;4455223;32;20152;-89
2022/04/10 08:23:17;;;;;;;7.00;2.83;;;;;;;10.67;43.72;98435.59;4462766;32;20085;-88
2022/04/10 08:25:43;;;;;;;8.27;2.97;;;;;;;10.44;43.92;98450.12;4457296;32;20439;-88
2022/04/10 08:28:08;;;;;;;8.82;2.92;;;;;;;10.79;42.95;98449.78;4470851;32;20120;-89
2022/04/10 08:30:34;;;;;;;7.90;3.10;;;;;;;11.08;43.20;98453.28;4470247;32;20405;-90
2022/04/10 08:33:00;;;;;;;8.93;3.15;;;;;;;10.62;42.75;98445.53;4470162;32;20439;-87
2022/04/10 08:35:25;;;;;;;7.80;3.35;;;;;;;10.90;42.87;98450.00;4458776;32;20104;-89
2022/04/10 08:37:51;;;;;;;9.52;3.53;;;;;;;10.97;43.21;98453.97;4459230;32;20090;-84
2022/04/10 08:40:17;;;;;;;9.00;2.97;;;;;;;10.97;42.67;98440.78;4464090;32;20111;-87
2022/04/10 08:42:43;;;;;;;8.57;3.75;;;;;;;10.74;43.21;98441.31;4448313;32;20148;-86
2022/04/10 08:45:09;;;;;;;8.80;2.92;;;;;;;10.76;42.50;98442.94;4460661;32;20096;-85
2022/04/10 08:47:37;;;;;;;9.15;3.10;;;;;;;11.02;42.02;98446.59;4447655;32;20138;-87
2022/04/10 08:50:03;;;;;;;7.80;2.30;;;;;;;11.04;41.38;98440.38;4461594;32;20108;-86
2022/04/10 08:52:28;;;;;;;6.43;2.25;;;;;;;10.89;39.92;98450.91;4462299;32;20119;-86
2022/04/10 08:54:54;;;;;;;7.75;2.65;;;;;;;11.12;40.21;98457.41;4448090;32;20406;-87
2022/04/10 08:57:19;;;;;;;8.82;2.72;;;;;;;10.91;40.74;98449.03;4435514;32;20147;-84
2022/04/10 08:59:45;;;;;;;6.53;2.65;;;;;;;11.29;40.82;98458.16;4462723;32;20345;-84
2022/04/10 09:02:11;;;;;;;7.25;2.35;;;;;;;11.34;40.94;98454.28;4461676;32;20406;-86
2022/04/10 09:04:40;;;;;;;9.93;3.83;;;;;;;11.23;39.63;98467.31;4445656;32;20177;-85
2022/04/10 09:07:08;;;;;;;6.28;2.20;;;;;;;11.21;39.72;98459.47;4440528;32;20140;-85
2022/04/10 09:09:54;;;;;;;5.82;2.12;;;;;;;10.96;40.09;98444.34;4455962;32;20101;-87
2022/04/10 09:12:19;;;;;;;7.95;2.75;;;;;;;11.12;41.24;98459.22;4470651;32;20132;-84
2022/04/10 09:14:44;;;;;;;8.25;2.55;;;;;;;11.52;40.25;98452.28;4460922;32;20120;-86
2022/04/10 09:17:18;;;;;;;6.35;2.10;;;;;;;11.41;39.67;98450.34;4445444;32;20428;-84
2022/04/10 09:19:51;;;;;;;5.72;2.03;;;;;;;11.36;38.46;98455.03;4459631;32;20677;-84
2022/04/10 09:22:20;;;;;;;6.62;2.15;;;;;;;11.37;37.73;98453.25;4450144;32;20125;-86
2022/04/10 09:25:14;;;;;;;6.93;2.45;;;;;;;11.33;38.62;98465.78;4463994;32;20108;-86
2022/04/10 09:27:39;;;;;;;7.53;2.30;;;;;;;11.47;39.01;98467.53;4435710;32;20104;-84
2022/04/10 09:30:07;;;;;;;7.45;2.40;;;;;;;11.50;38.63;98467.34;4448710;32;20119;-83
2022/04/10 09:32:47;;;;;;;6.95;2.72;;;;;;;11.57;38.56;98466.03;4466994;32;20111;-82
2022/04/10 09:35:17;;;;;;;6.35;2.20;;;;;;;11.35;39.17;98452.50;4467460;32;20128;-83
2022/04/10 09:37:49;;;;;;;7.57;2.70;;;;;;;11.77;39.15;98461.25;4458632;32;20115;-85
2022/04/10 09:40:22;;;;;;;8.05;2.53;;;;;;;11.30;39.07;98463.34;4455382;32;20129;-85
2022/04/10 09:43:01;;;;;;;7.85;2.60;;;;;;;11.31;39.69;98465.03;4466628;32;20101;-87
2022/04/10 09:45:33;;;;;;;8.30;2.80;;;;;;;11.59;39.21;98456.22;4446358;32;20108;-85
2022/04/10 09:48:19;;;;;;;7.25;2.00;;;;;;;11.73;39.15;98465.03;4454789;32;155785;-86
2022/04/10 09:50:45;;;;;;;4.97;1.80;;;;;;;11.69;36.83;98468.84;4457616;32;20114;-87
2022/04/10 09:53:11;;;;;;;6.53;2.05;;;;;;;11.72;36.46;98464.19;4450823;32;20127;-84
2022/04/10 09:55:41;;;;;;;5.05;2.03;;;;;;;11.55;37.03;98456.50;4468642;32;20120;-84
2022/04/10 09:58:12;;;;;;;5.47;1.80;;;;;;;11.80;36.23;98461.03;4448010;32;20109;-82
2022/04/10 10:00:39;;;;;;;5.60;1.98;;;;;;;11.89;36.55;98464.88;4441181;32;20097;-85
2022/04/10 10:03:05;;;;;;;;;;;;;;;11.82;37.57;98461.81;4455883;32;20093;-85
2022/04/10 10:05:31;;;;;;;5.50;1.77;;;;;;;11.88;37.60;98453.50;4462169;32;20338;-87
2022/04/10 10:07:58;;;;;;;5.75;2.03;;;;;;;11.47;37.14;98467.53;4443104;32;20119;-84
2022/04/10 10:10:24;;;;;;;5.53;1.80;;;;;;;11.61;36.87;98464.88;4427510;32;20105;-86
2022/04/10 10:12:51;;;;;;;4.50;1.65;;;;;;;11.94;36.04;98462.84;4440583;32;20089;-85
2022/04/10 10:15:17;;;;;;;3.85;1.60;;;;;;;11.72;35.68;98458.91;4440185;32;20097;-84
2022/04/10 10:17:43;;;;;;;5.68;1.87;;;;;;;11.91;35.49;98458.59;4458734;32;20088;-85
2022/04/10 10:20:10;;;;;;;6.15;2.00;;;;;;;11.18;35.77;98464.97;4467240;32;20120;-83
2022/04/10 10:22:36;;;;;;;5.57;1.83;;;;;;;10.98;36.97;98460.06;4441165;32;20106;-87
2022/04/10 10:25:11;;;;;;;6.78;2.08;;;;;;;11.14;37.55;98466.06;4449894;32;20121;-86
2022/04/10 10:28:01;;;;;;;7.93;2.40;;;;;;;10.90;38.87;98460.53;4448676;32;20100;-83
2022/04/10 10:30:52;;;;;;;7.82;2.70;;;;;;;10.67;38.74;98471.63;4458697;32;20092;-83
2022/04/10 10:33:19;;;;;;;5.35;2.10;;;;;;;10.98;39.06;98479.34;4457274;32;20185;-83
2022/04/10 10:35:50;;;;;;;5.75;1.67;;;;;;;11.25;38.28;98467.22;4460348;32;20097;-85
2022/04/10 10:38:32;;;;;;;6.35;1.90;;;;;;;11.13;36.37;98461.75;4456070;32;20093;-84
2022/04/10 10:41:29;;;;;;;5.53;1.80;;;;;;;11.28;36.15;98478.41;4466728;32;20467;-83
2022/04/10 10:43:56;;;;;;;6.25;1.98;;;;;;;11.22;37.09;98468.22;4466887;32;20111;-84
2022/04/10 10:46:28;;;;;;;7.30;2.17;;;;;;;11.01;38.43;98468.63;4458557;32;20452;-82
2022/04/10 10:49:17;;;;;;;6.18;1.87;;;;;;;10.94;38.27;98469.09;4466944;32;20081;-83
2022/04/10 10:51:43;;;;;;;7.28;2.20;;;;;;;11.13;38.35;98482.00;4455919;32;20096;-83
2022/04/10 10:54:12;;;;;;;5.90;2.08;;;;;;;10.94;39.01;98477.00;4468215;32;20559;-83
2022/04/10 10:56:42;;;;;;;4.62;1.87;;;;;;;11.08;38.78;98455.06;4455813;32;20577;-84
2022/04/10 10:59:29;;;;;;;6.80;2.22;;;;;;;10.93;37.45;98463.00;4461576;32;20156;-83
2022/04/10 11:02:10;;;;;;;5.25;1.92;;;;;;;11.19;38.11;98464.00;4460527;32;20574;-85
2022/04/10 11:04:44;;;;;;;5.68;2.08;;;;;;;11.18;38.12;98454.41;4468690;32;20085;-84
2022/04/10 11:07:19;;;;;;;4.90;2.05;;;;;;;11.30;38.89;98460.72;4461829;32;20561;-83
2022/04/10 11:09:59;;;;;;;4.20;1.90;;;;;;;11.51;38.00;98455.00;4461598;32;20088;-85
2022/04/10 11:12:35;;;;;;;7.12;2.55;;;;;;;11.53;37.70;98451.34;4467993;32;20151;-84
2022/04/10 11:15:23;;;;;;;6.75;2.40;;;;;;;11.63;36.46;98456.88;4457000;32;20089;-82
2022/04/10 11:17:50;;;;;;;6.07;1.95;;;;;;;11.91;37.35;98450.66;4461021;32;20093;-82
2022/04/10 11:20:18;;;;;;;6.35;2.20;;;;;;;11.97;36.81;98470.53;4456070;32;20096;-84
2022/04/10 11:22:54;;;;;;;5.37;1.90;;;;;;;11.55;37.04;98461.78;4468251;32;20437;-84
2022/04/10 11:25:29;;;;;;;3.65;1.42;;;;;;;11.55;36.64;98451.22;4460886;32;20503;-82
2022/04/10 11:27:56;;;;;;;6.50;1.90;;;;;;;11.91;36.29;98460.38;4446655;32;20101;-84
2022/04/10 11:30:37;;;;;;;3.33;1.60;;;;;;;12.07;34.85;98460.22;4469069;32;20160;-83
2022/04/10 11:33:04;;;;;;;4.72;1.40;;;;;;;12.15;34.59;98444.75;4466497;32;20177;-84
2022/04/10 11:35:36;;;;;;;4.35;1.65;;;;;;;12.06;34.85;98442.72;4455822;32;20085;-88
2022/04/10 11:38:06;;;;;;;3.62;1.25;;;;;;;11.84;34.06;98446.72;4454848;32;20170;-87
2022/04/10 11:40:33;;;;;;;5.22;1.60;;;;;;;11.91;34.51;98457.75;4457665;32;20097;-87
2022/04/10 11:43:00;;;;;;;5.28;1.60;;;;;;;11.97;33.68;98447.63;4455896;32;20097;-89